Time;durP1;ratioP1;P1;durP2;ratioP2;P2;SDS_P1;SDS_P2;PMS_P1;PMS_P2;Temp;Humidity;BMP_temperature;BMP_pressure;BME280_temperature;BME280_humidity;BME280_pressure;Samples;Min_cycle;Max_cycle;Signal;HPM_P1;HPM_P2
2022/12/14 00:01:31;;;;;;;58.03;23.67;;;-6.40;99.90;;;;;;6188478;23;20278;-77
2022/12/14 00:03:58;;;;;;;56.00;23.23;;;-6.40;99.90;;;;;;6188826;23;20576;-77
2022/12/14 00:06:28;;;;;;;63.70;24.70;;;-6.40;99.90;;;;;;6188398;23;20478;-81
2022/12/14 00:08:58;;;;;;;59.40;24.37;;;-6.50;99.90;;;;;;6189227;23;20499;-77
2022/12/14 00:11:25;;;;;;;56.90;23.67;;;-6.50;99.90;;;;;;6164019;23;20174;-76
2022/12/14 00:13:54;;;;;;;62.73;23.87;;;-6.50;99.90;;;;;;6188893;23;20500;-78
2022/12/14 00:16:22;;;;;;;55.73;23.03;;;-6.50;99.90;;;;;;6189067;23;20167;-80
2022/12/14 00:18:52;;;;;;;56.53;23.23;;;-6.50;99.90;;;;;;6188973;23;20605;-77
2022/12/14 00:21:19;;;;;;;57.53;23.03;;;-6.40;99.90;;;;;;6188705;23;20194;-81
2022/12/14 00:23:49;;;;;;;55.17;22.40;;;-6.50;99.90;;;;;;6215472;23;20246;-81
2022/12/14 00:26:24;;;;;;;58.80;24.00;;;-6.50;99.90;;;;;;6215169;23;20174;-82
2022/12/14 00:28:52;;;;;;;56.40;22.77;;;-6.60;99.90;;;;;;6189073;23;20198;-81
2022/12/14 00:31:20;;;;;;;59.07;24.00;;;-6.50;99.90;;;;;;6215748;23;20171;-82
2022/12/14 00:33:49;;;;;;;58.73;24.50;;;-6.60;99.90;;;;;;6188859;23;20492;-79
2022/12/14 00:36:16;;;;;;;55.77;23.33;;;-6.60;99.90;;;;;;6215180;23;20166;-81
2022/12/14 00:38:43;;;;;;;53.20;22.77;;;-6.70;99.90;;;;;;6189137;23;20209;-80
2022/12/14 00:41:11;;;;;;;58.63;23.20;;;-6.70;99.90;;;;;;6215231;23;20239;-79
2022/12/14 00:43:38;;;;;;;55.80;22.83;;;-6.70;99.90;;;;;;6188629;23;20166;-82
2022/12/14 00:46:05;;;;;;;59.23;23.53;;;-6.70;99.90;;;;;;6188415;23;20233;-78
2022/12/14 00:48:32;;;;;;;60.30;23.43;;;-6.70;99.90;;;;;;6188546;23;20165;-79
2022/12/14 00:50:59;;;;;;;57.20;23.33;;;-6.70;99.90;;;;;;6188542;23;20173;-80
2022/12/14 00:53:26;;;;;;;63.83;23.23;;;-6.70;99.90;;;;;;6215267;23;20173;-77
2022/12/14 00:55:53;;;;;;;56.70;23.30;;;-6.80;99.90;;;;;;6188469;23;20212;-79
2022/12/14 00:58:23;;;;;;;64.77;24.73;;;-6.80;99.90;;;;;;6188896;23;20163;-77
2022/12/14 01:01:04;;;;;;;59.43;21.70;;;-6.80;99.90;;;;;;6188679;23;20238;-81
2022/12/14 01:03:32;;;;;;;50.83;21.53;;;-6.70;99.90;;;;;;6189133;23;20171;-77
2022/12/14 01:06:00;;;;;;;57.93;23.47;;;-6.80;99.90;;;;;;6214984;23;20541;-82
2022/12/14 01:08:33;;;;;;;58.93;22.23;;;-6.80;99.90;;;;;;6188924;23;20174;-83
2022/12/14 01:11:06;;;;;;;56.63;22.40;;;-6.80;99.90;;;;;;6188787;23;20163;-79
2022/12/14 01:13:35;;;;;;;59.07;23.13;;;-6.80;99.90;;;;;;6188541;23;20165;-80
2022/12/14 01:16:13;;;;;;;60.07;24.20;;;-6.80;99.90;;;;;;6188147;23;20195;-78
2022/12/14 01:18:42;;;;;;;59.77;23.30;;;-6.90;99.90;;;;;;6188381;23;20249;-78
2022/12/14 01:21:13;;;;;;;56.87;23.43;;;-6.80;99.90;;;;;;6188035;23;20285;-77
2022/12/14 01:23:42;;;;;;;59.50;22.87;;;-6.80;99.90;;;;;;6189641;23;20217;-78
2022/12/14 01:26:13;;;;;;;62.20;23.57;;;-6.90;99.90;;;;;;6216875;23;20173;-84
2022/12/14 01:28:44;;;;;;;56.83;23.57;;;-6.90;99.90;;;;;;6197524;23;20201;-82
2022/12/14 01:31:16;;;;;;;63.93;23.67;;;-6.90;99.90;;;;;;6195750;23;20178;-84
2022/12/14 01:33:44;;;;;;;60.27;22.87;;;-7.00;99.90;;;;;;6190118;23;20667;-88
2022/12/14 01:36:14;;;;;;;56.40;22.90;;;-7.00;99.90;;;;;;6189563;23;20200;-88
2022/12/14 01:38:42;;;;;;;56.47;22.47;;;-6.80;99.90;;;;;;6189698;23;20194;-90
2022/12/14 01:41:27;;;;;;;53.80;22.53;;;-6.80;99.90;;;;;;6165014;23;20205;-89
2022/12/14 01:43:56;;;;;;;61.93;23.47;;;-6.90;99.90;;;;;;6188721;23;20225;-88
2022/12/14 01:46:33;;;;;;;55.63;22.53;;;-6.90;99.90;;;;;;6217217;23;20153;-88
2022/12/14 01:49:35;;;;;;;55.67;22.33;;;-6.90;99.90;;;;;;6216815;23;20456;-85
2022/12/14 01:52:35;;;;;;;55.20;21.53;;;-7.00;99.90;;;;;;6188979;23;20658;-82
2022/12/14 01:55:06;;;;;;;55.97;21.73;;;-7.00;99.90;;;;;;6189500;23;20675;-82
2022/12/14 01:57:47;;;;;;;57.47;22.63;;;-6.90;99.90;;;;;;6154777;23;20173;-81
2022/12/14 02:00:15;;;;;;;55.73;22.03;;;-7.00;99.90;;;;;;6156780;23;20178;-81
2022/12/14 02:02:51;;;;;;;61.87;23.47;;;-7.00;99.90;;;;;;6181681;23;20633;-81
2022/12/14 02:05:21;;;;;;;57.43;21.97;;;-7.10;99.90;;;;;;6155334;23;20181;-81
2022/12/14 02:07:51;;;;;;;58.10;22.40;;;-7.00;99.90;;;;;;6154423;23;20195;-81
2022/12/14 02:10:20;;;;;;;58.47;22.67;;;-7.00;99.90;;;;;;6179948;23;20162;-81
2022/12/14 02:12:51;;;;;;;55.43;22.60;;;-7.00;99.90;;;;;;6156918;23;20187;-81
2022/12/14 02:15:18;;;;;;;60.60;22.00;;;-7.00;99.90;;;;;;6156807;23;20175;-81
2022/12/14 02:17:47;;;;;;;57.33;21.90;;;-7.00;99.90;;;;;;6179754;23;20216;-80
2022/12/14 02:20:15;;;;;;;56.33;22.27;;;-7.10;99.90;;;;;;6156903;23;20497;-80
2022/12/14 02:23:06;;;;;;;53.63;21.40;;;-7.10;99.90;;;;;;6154944;23;20704;-83
2022/12/14 02:26:07;;;;;;;52.43;21.47;;;-7.10;99.90;;;;;;6156760;23;20175;-82
2022/12/14 02:29:08;;;;;;;54.93;21.90;;;-7.10;99.90;;;;;;6157048;23;20207;-80
2022/12/14 02:32:04;;;;;;;54.00;21.60;;;-7.10;99.90;;;;;;6179425;23;20168;-82
2022/12/14 02:34:56;;;;;;;60.83;22.43;;;-7.10;99.90;;;;;;6154491;23;20192;-81
2022/12/14 02:37:34;;;;;;;55.50;20.97;;;-7.00;99.90;;;;;;6154764;23;20217;-81
2022/12/14 02:40:17;;;;;;;51.73;19.87;;;-7.00;99.90;;;;;;6155031;23;20640;-84
2022/12/14 02:43:05;;;;;;;61.30;22.07;;;-7.10;99.90;;;;;;6155879;23;20192;-81
2022/12/14 02:46:09;;;;;;;51.20;21.20;;;-7.20;99.90;;;;;;6156803;23;20178;-82
2022/12/14 02:48:45;;;;;;;52.10;21.57;;;-7.20;99.90;;;;;;6156453;23;20174;-82
2022/12/14 02:51:24;;;;;;;52.67;21.17;;;-7.30;99.90;;;;;;6156062;23;20609;-82
2022/12/14 02:54:02;;;;;;;55.50;21.43;;;-7.20;99.90;;;;;;6155028;23;20178;-82
2022/12/14 02:56:42;;;;;;;56.40;21.57;;;-7.20;99.90;;;;;;6172783;23;20206;-83
2022/12/14 02:59:10;;;;;;;52.47;21.53;;;-7.20;99.90;;;;;;6189393;23;20168;-85
2022/12/14 03:01:39;;;;;;;52.93;21.60;;;-7.30;99.90;;;;;;6189936;23;20252;-84
2022/12/14 03:04:07;;;;;;;52.53;21.43;;;-7.30;99.90;;;;;;6188294;23;20205;-83
2022/12/14 03:06:34;;;;;;;54.40;21.20;;;-7.20;99.90;;;;;;6186558;23;20174;-83
2022/12/14 03:09:12;;;;;;;52.50;20.73;;;-7.30;99.90;;;;;;6185013;23;20578;-84
2022/12/14 03:11:47;;;;;;;51.50;20.33;;;-7.30;99.90;;;;;;6187118;23;20159;-84
2022/12/14 03:14:24;;;;;;;49.80;20.67;;;-7.40;99.90;;;;;;6184342;23;20258;-84
2022/12/14 03:16:53;;;;;;;51.83;20.27;;;-7.30;99.90;;;;;;6184935;23;20488;-83
2022/12/14 03:19:25;;;;;;;51.33;21.30;;;-7.30;99.90;;;;;;6184439;23;20174;-85
2022/12/14 03:22:00;;;;;;;50.30;20.63;;;-7.30;99.90;;;;;;6184632;23;20198;-83
2022/12/14 03:24:48;;;;;;;50.00;21.37;;;-7.30;99.90;;;;;;6186269;23;20223;-83
2022/12/14 03:27:20;;;;;;;49.00;20.03;;;-7.40;99.90;;;;;;6186287;23;20236;-84
2022/12/14 03:29:56;;;;;;;49.50;21.03;;;-7.50;99.90;;;;;;6186118;23;20156;-84
2022/12/14 03:32:27;;;;;;;52.00;20.67;;;-7.40;99.90;;;;;;6184584;23;20159;-84
2022/12/14 03:34:59;;;;;;;51.73;20.93;;;-7.40;99.90;;;;;;6187080;23;20240;-85
2022/12/14 03:37:35;;;;;;;49.70;20.00;;;-7.50;99.90;;;;;;6164275;23;20181;-85
2022/12/14 03:40:06;;;;;;;51.33;20.83;;;-7.70;99.90;;;;;;6185411;23;20176;-85
2022/12/14 03:42:58;;;;;;;51.60;20.97;;;-7.70;99.90;;;;;;6160114;23;20194;-85
2022/12/14 03:45:47;;;;;;;56.43;20.27;;;-7.80;99.90;;;;;;6186875;23;20178;-82
2022/12/14 03:48:36;;;;;;;50.03;20.90;;;-7.80;99.90;;;;;;6186352;23;20181;-82
2022/12/14 03:51:13;;;;;;;55.13;21.00;;;-7.80;99.90;;;;;;6184127;23;20166;-83
2022/12/14 03:54:04;;;;;;;52.80;20.67;;;-7.90;99.90;;;;;;6184066;23;20189;-82
2022/12/14 03:56:51;;;;;;;57.73;21.73;;;-7.90;99.90;;;;;;6184038;23;20289;-82
2022/12/14 03:59:32;;;;;;;55.00;21.50;;;-8.00;99.90;;;;;;6184542;23;20622;-84
2022/12/14 04:02:11;;;;;;;58.50;22.10;;;-8.00;99.90;;;;;;6192879;23;20186;-82
2022/12/14 04:04:49;;;;;;;50.90;21.50;;;-8.00;99.90;;;;;;6190354;23;20214;-84
2022/12/14 04:07:27;;;;;;;47.67;20.57;;;-8.00;99.90;;;;;;6185437;23;20230;-81
2022/12/14 04:10:01;;;;;;;57.80;23.33;;;-8.10;99.90;;;;;;6184512;23;20633;-83
2022/12/14 04:21:23;;;;;;;54.93;21.03;;;-8.30;99.90;;;;;;6184739;23;20162;-85
2022/12/14 04:26:49;;;;;;;53.23;20.57;;;-8.40;99.90;;;;;;6184516;23;20261;-84
2022/12/14 04:32:39;;;;;;;51.97;19.97;;;-8.40;99.90;;;;;;6186004;23;20201;-85
2022/12/14 04:35:28;;;;;;;53.67;20.97;;;-8.50;99.90;;;;;;6094666;23;20259;-82
2022/12/14 04:38:01;;;;;;;56.00;21.30;;;-8.50;99.90;;;;;;6070722;23;20203;-83
2022/12/14 04:40:39;;;;;;;52.73;20.83;;;-8.50;99.90;;;;;;6070654;23;20176;-85
2022/12/14 04:43:13;;;;;;;49.70;20.10;;;-8.60;99.90;;;;;;6094768;23;20584;-83
2022/12/14 04:46:09;;;;;;;51.13;20.73;;;-8.50;99.90;;;;;;6094565;23;20196;-85
2022/12/14 04:48:54;;;;;;;53.77;21.47;;;-8.60;99.90;;;;;;6094666;23;20223;-83
2022/12/14 04:51:37;;;;;;;51.33;20.47;;;-8.60;99.90;;;;;;6094429;23;20229;-81
2022/12/14 04:54:29;;;;;;;53.97;21.03;;;-8.60;99.90;;;;;;6070211;23;20180;-83
2022/12/14 04:57:16;;;;;;;52.53;20.77;;;-8.60;99.90;;;;;;6085309;23;20240;-84
2022/12/14 04:59:46;;;;;;;57.37;22.40;;;-8.50;99.90;;;;;;6072311;23;20270;-85
2022/12/14 05:02:16;;;;;;;60.07;21.17;;;-8.50;99.90;;;;;;6080934;23;20197;-85
2022/12/14 05:05:21;;;;;;;54.67;21.27;;;-8.60;99.90;;;;;;6101333;23;20705;-85
2022/12/14 05:08:01;;;;;;;59.37;21.23;;;-8.70;99.90;;;;;;6010621;23;20187;-84
2022/12/14 05:10:31;;;;;;;53.67;21.33;;;-8.80;99.90;;;;;;6011111;23;20631;-87
2022/12/14 05:13:28;;;;;;;51.17;21.13;;;-8.90;99.90;;;;;;6058575;23;20548;-83
2022/12/14 05:15:57;;;;;;;50.67;19.73;;;-8.90;99.90;;;;;;6068178;23;20259;-83
2022/12/14 05:18:25;;;;;;;57.30;21.63;;;-9.00;99.90;;;;;;6067365;23;20203;-84
2022/12/14 05:20:51;;;;;;;55.03;21.70;;;-9.20;99.90;;;;;;6048800;23;20179;-83
2022/12/14 05:23:18;;;;;;;52.23;21.90;;;-9.20;99.90;;;;;;6067824;23;20217;-83
2022/12/14 05:25:45;;;;;;;62.83;21.57;;;-9.30;99.90;;;;;;6066700;23;20174;-82
2022/12/14 05:28:15;;;;;;;49.67;19.90;;;-9.30;99.90;;;;;;6068078;23;20170;-83
2022/12/14 05:30:42;;;;;;;55.10;21.00;;;-9.40;99.90;;;;;;6043576;23;20178;-87
2022/12/14 05:33:19;;;;;;;53.67;20.67;;;-9.50;99.90;;;;;;6067209;23;20173;-85
2022/12/14 05:35:45;;;;;;;62.63;22.20;;;-9.60;99.90;;;;;;6067001;23;20195;-83
2022/12/14 05:38:12;;;;;;;53.50;21.27;;;-9.60;99.90;;;;;;6067052;23;20618;-83
2022/12/14 05:40:39;;;;;;;51.47;20.50;;;-9.70;99.90;;;;;;6067087;23;20184;-83
2022/12/14 05:43:08;;;;;;;58.43;21.73;;;-9.80;99.90;;;;;;6071575;23;20197;-83
2022/12/14 05:45:35;;;;;;;54.70;22.07;;;-9.90;99.90;;;;;;6156083;23;20350;-84
2022/12/14 05:48:03;;;;;;;64.53;23.07;;;-9.80;99.90;;;;;;6163306;23;20263;-84
2022/12/14 05:50:30;;;;;;;64.90;22.90;;;-10.00;99.90;;;;;;6157900;23;20172;-84
2022/12/14 05:52:57;;;;;;;58.93;22.67;;;-10.00;99.90;;;;;;6157861;23;20492;-82
2022/12/14 05:55:23;;;;;;;60.73;22.30;;;-10.10;99.90;;;;;;6162172;23;20222;-86
2022/12/14 05:57:50;;;;;;;61.07;22.00;;;-10.20;99.90;;;;;;6191350;23;20174;-83
2022/12/14 06:00:17;;;;;;;55.33;21.20;;;-10.20;99.90;;;;;;6190670;23;20581;-85
2022/12/14 06:02:44;;;;;;;57.07;21.63;;;-10.30;99.90;;;;;;6190805;23;20216;-87
2022/12/14 06:05:11;;;;;;;62.03;21.77;;;-10.30;99.90;;;;;;6217867;23;20241;-85
2022/12/14 06:07:38;;;;;;;63.67;22.07;;;-10.40;99.90;;;;;;6198266;23;20652;-83
2022/12/14 06:10:06;;;;;;;62.97;21.27;;;-10.40;99.90;;;;;;6190920;23;20151;-85
2022/12/14 06:12:33;;;;;;;55.13;21.87;;;-10.40;99.90;;;;;;6217424;23;20172;-84
2022/12/14 06:14:59;;;;;;;55.23;22.10;;;-10.50;99.90;;;;;;6190405;23;20259;-84
2022/12/14 06:17:26;;;;;;;58.50;20.63;;;-10.50;99.90;;;;;;6216872;23;20515;-83
2022/12/14 06:19:53;;;;;;;55.77;21.23;;;-10.60;99.90;;;;;;6208856;23;20200;-82
2022/12/14 06:22:20;;;;;;;55.03;20.30;;;-10.60;99.90;;;;;;6190232;23;20263;-83
2022/12/14 06:24:47;;;;;;;59.43;20.83;;;-10.70;99.90;;;;;;6190240;23;20189;-86
2022/12/14 06:27:14;;;;;;;52.17;20.27;;;-10.70;99.90;;;;;;6190780;23;20234;-86
2022/12/14 06:29:41;;;;;;;57.93;21.17;;;-10.70;99.90;;;;;;6190110;23;20168;-83
2022/12/14 06:32:08;;;;;;;55.17;19.63;;;-10.80;99.90;;;;;;6190338;23;20279;-86
2022/12/14 06:34:35;;;;;;;56.67;20.40;;;-10.80;99.90;;;;;;6216467;23;20247;-83
2022/12/14 06:37:07;;;;;;;56.40;20.77;;;-10.80;99.90;;;;;;6190251;23;20201;-82
2022/12/14 06:39:34;;;;;;;55.40;19.93;;;-10.80;99.90;;;;;;6194594;23;20176;-83
2022/12/14 06:42:01;;;;;;;59.00;20.13;;;-10.90;99.90;;;;;;6190161;23;20171;-86
2022/12/14 06:44:28;;;;;;;55.80;20.37;;;-10.90;99.90;;;;;;6190240;23;20234;-85
2022/12/14 06:46:55;;;;;;;52.43;19.67;;;-10.90;99.90;;;;;;6189858;23;20198;-84
2022/12/14 06:49:22;;;;;;;52.53;20.40;;;-10.90;99.90;;;;;;6216169;23;20734;-76
2022/12/14 06:51:49;;;;;;;53.03;19.57;;;-10.90;99.90;;;;;;6189456;23;20173;-81
2022/12/14 06:54:17;;;;;;;55.33;20.13;;;-10.90;99.90;;;;;;6215937;23;20198;-86
2022/12/14 06:56:45;;;;;;;57.07;21.30;;;-10.90;99.90;;;;;;6185029;23;20211;-85
2022/12/14 06:59:12;;;;;;;58.57;20.90;;;-10.90;99.90;;;;;;6184584;23;20173;-70
2022/12/14 07:01:39;;;;;;;62.67;21.50;;;-10.90;99.90;;;;;;6185072;23;20176;-69
2022/12/14 07:04:07;;;;;;;58.27;20.97;;;-10.90;99.90;;;;;;6192410;23;20195;-70
2022/12/14 07:06:39;;;;;;;61.23;21.17;;;-10.80;99.90;;;;;;6188305;23;20236;-72
2022/12/14 07:09:10;;;;;;;64.13;21.27;;;-10.80;99.90;;;;;;6185043;23;20223;-72
2022/12/14 07:11:37;;;;;;;64.87;22.27;;;-10.80;99.90;;;;;;6190117;23;20181;-74
2022/12/14 07:14:05;;;;;;;61.80;22.20;;;-10.80;99.90;;;;;;6184999;23;20173;-79
2022/12/14 07:16:34;;;;;;;62.17;21.97;;;-10.80;99.90;;;;;;6185744;23;20244;-76
2022/12/14 07:19:01;;;;;;;68.67;22.60;;;-10.70;99.90;;;;;;6183372;23;20274;-79
2022/12/14 07:21:28;;;;;;;60.07;22.33;;;-10.70;99.90;;;;;;6184008;23;20283;-76
2022/12/14 07:23:55;;;;;;;65.07;22.27;;;-10.60;99.90;;;;;;6184200;23;20217;-85
2022/12/14 07:26:25;;;;;;;66.40;22.10;;;-10.60;99.90;;;;;;6182303;23;20195;-77
2022/12/14 07:28:52;;;;;;;64.37;22.37;;;-10.50;99.90;;;;;;6183683;23;20267;-81
2022/12/14 07:31:24;;;;;;;66.33;23.20;;;-10.40;99.90;;;;;;6182768;23;20256;-81
2022/12/14 07:33:57;;;;;;;68.03;21.30;;;-10.40;99.90;;;;;;6184812;23;20192;-82
2022/12/14 07:36:25;;;;;;;67.97;23.37;;;-10.30;99.90;;;;;;6187985;23;20499;-81
2022/12/14 07:38:54;;;;;;;75.40;23.60;;;-10.20;99.90;;;;;;6186060;23;20180;-80
2022/12/14 07:41:28;;;;;;;72.00;24.20;;;-10.20;99.90;;;;;;6184467;23;20497;-83
2022/12/14 07:43:56;;;;;;;68.93;23.23;;;-10.00;99.90;;;;;;6183899;23;20195;-83
2022/12/14 07:46:25;;;;;;;60.93;23.47;;;-10.00;99.90;;;;;;6184266;23;20163;-83
2022/12/14 07:48:54;;;;;;;59.50;23.40;;;-9.90;99.90;;;;;;6185503;23;20465;-84
2022/12/14 07:51:24;;;;;;;64.60;23.73;;;-9.80;99.90;;;;;;6184131;23;20198;-83
2022/12/14 07:53:51;;;;;;;70.43;24.70;;;-9.60;99.90;;;;;;6183698;23;20177;-81
2022/12/14 07:56:26;;;;;;;67.70;24.43;;;-9.20;99.90;;;;;;6183687;23;20194;-81
2022/12/14 07:58:57;;;;;;;72.43;25.27;;;-8.80;99.90;;;;;;6183968;23;20177;-83
2022/12/14 08:01:26;;;;;;;71.80;25.00;;;-8.40;99.90;;;;;;6184403;23;20171;-82
2022/12/14 08:03:58;;;;;;;70.93;23.90;;;-8.00;99.90;;;;;;6184215;23;20189;-73
2022/12/14 08:06:28;;;;;;;59.27;23.90;;;-7.70;99.90;;;;;;6185331;23;20181;-73
2022/12/14 08:08:56;;;;;;;66.27;24.97;;;-7.40;99.90;;;;;;6184100;23;20176;-82
2022/12/14 08:11:23;;;;;;;69.53;25.10;;;-7.10;99.90;;;;;;6185992;23;20554;-75
2022/12/14 08:13:58;;;;;;;67.40;24.27;;;-6.90;99.90;;;;;;6183902;23;20603;-73
2022/12/14 08:16:26;;;;;;;67.13;24.03;;;-6.60;99.90;;;;;;6183489;23;20620;-75
2022/12/14 08:18:54;;;;;;;59.50;24.20;;;-6.50;99.90;;;;;;6183428;23;20527;-74
2022/12/14 08:21:22;;;;;;;62.43;24.17;;;-6.40;99.90;;;;;;6184015;23;20173;-72
2022/12/14 08:23:50;;;;;;;63.50;25.17;;;-6.20;99.90;;;;;;6183837;23;20718;-72
2022/12/14 08:26:17;;;;;;;69.50;25.47;;;-6.00;99.90;;;;;;6185770;23;20482;-72
2022/12/14 08:28:45;;;;;;;65.23;25.20;;;-5.80;99.90;;;;;;6184620;23;20167;-74
2022/12/14 08:31:17;;;;;;;64.47;24.97;;;-5.80;99.90;;;;;;6185457;23;20167;-72
2022/12/14 08:33:45;;;;;;;65.20;24.03;;;-5.70;99.90;;;;;;6186737;23;20232;-73
2022/12/14 08:36:15;;;;;;;59.23;24.30;;;-5.70;99.90;;;;;;6186425;23;20186;-73
2022/12/14 08:38:42;;;;;;;60.23;24.10;;;-5.90;99.90;;;;;;6185694;23;20176;-73
2022/12/14 08:41:11;;;;;;;61.47;23.70;;;-6.00;99.90;;;;;;6185721;23;20185;-78
2022/12/14 08:43:39;;;;;;;64.27;25.23;;;-6.00;99.90;;;;;;6185810;23;20184;-73
2022/12/14 08:46:08;;;;;;;62.27;25.10;;;-6.20;99.90;;;;;;6187521;23;20169;-75
2022/12/14 08:48:35;;;;;;;62.87;24.97;;;-6.30;99.90;;;;;;6186613;23;20254;-84
2022/12/14 08:51:07;;;;;;;62.00;25.00;;;-6.50;99.90;;;;;;6187348;23;20170;-73
2022/12/14 08:53:35;;;;;;;63.50;25.90;;;-6.50;99.90;;;;;;6185776;23;20172;-87
2022/12/14 08:56:10;;;;;;;66.70;25.03;;;-6.60;99.90;;;;;;6180365;23;20198;-74
2022/12/14 08:58:38;;;;;;;59.17;24.13;;;-6.70;99.90;;;;;;6156552;23;20199;-85
2022/12/14 09:01:10;;;;;;;56.17;24.33;;;-6.70;99.90;;;;;;6157864;23;20595;-85
2022/12/14 09:03:46;;;;;;;60.43;24.43;;;-6.70;99.90;;;;;;6158186;23;20243;-86
2022/12/14 09:06:15;;;;;;;56.77;22.63;;;-6.70;99.90;;;;;;6157712;23;20670;-85
2022/12/14 09:08:43;;;;;;;59.33;24.47;;;-6.70;99.90;;;;;;6180943;23;20181;-84
2022/12/14 09:11:12;;;;;;;61.87;23.57;;;-6.70;99.90;;;;;;6155724;23;20175;-73
2022/12/14 09:13:39;;;;;;;61.50;23.83;;;-6.60;99.90;;;;;;6180743;23;20187;-72
2022/12/14 09:16:18;;;;;;;55.33;24.80;;;-6.60;99.90;;;;;;6157210;23;20278;-74
2022/12/14 09:18:46;;;;;;;67.90;24.77;;;-6.60;99.90;;;;;;6157433;23;20202;-72
2022/12/14 09:21:14;;;;;;;67.20;25.53;;;-6.60;99.90;;;;;;6156423;23;20239;-78
2022/12/14 09:23:42;;;;;;;62.67;26.47;;;-6.60;99.90;;;;;;6155203;23;20191;-71
2022/12/14 09:26:15;;;;;;;64.97;26.37;;;-6.70;99.90;;;;;;6179971;23;20171;-71
2022/12/14 09:28:46;;;;;;;65.77;26.67;;;-6.60;99.90;;;;;;6155658;23;20286;-73
2022/12/14 09:31:16;;;;;;;67.10;27.00;;;-6.60;99.90;;;;;;6155335;23;20169;-72
2022/12/14 09:33:43;;;;;;;68.90;26.77;;;-6.50;99.90;;;;;;6154918;23;20257;-75
2022/12/14 09:36:20;;;;;;;69.80;28.10;;;-6.50;99.90;;;;;;6180306;23;20164;-73
2022/12/14 09:38:48;;;;;;;70.70;28.27;;;-6.40;99.90;;;;;;6155176;23;20171;-72
2022/12/14 09:41:33;;;;;;;67.13;27.07;;;-6.40;99.90;;;;;;6179914;23;20184;-74
2022/12/14 09:44:18;;;;;;;75.27;29.23;;;-6.30;99.90;;;;;;6154376;23;20635;-83
2022/12/14 09:47:06;;;;;;;75.47;27.80;;;-6.20;99.90;;;;;;6154827;23;20255;-73
2022/12/14 09:49:53;;;;;;;69.80;28.23;;;-6.20;99.90;;;;;;6155146;23;20179;-79
2022/12/14 09:52:32;;;;;;;66.10;26.53;;;-6.10;99.90;;;;;;6179657;23;20266;-72
2022/12/14 09:55:04;;;;;;;69.60;29.10;;;-6.10;99.90;;;;;;6154933;23;20266;-72
2022/12/14 09:57:38;;;;;;;72.33;28.80;;;-6.10;99.90;;;;;;6216221;23;20538;-73
2022/12/14 10:00:19;;;;;;;68.20;27.80;;;-6.00;99.90;;;;;;6193644;23;20162;-75
2022/12/14 10:03:04;;;;;;;66.20;27.53;;;-6.00;99.90;;;;;;6217279;23;20246;-73
2022/12/14 10:06:17;;;;;;;68.43;27.23;;;-6.00;99.90;;;;;;6191898;23;20233;-81
2022/12/14 10:08:53;;;;;;;70.50;28.07;;;-6.00;99.90;;;;;;6191496;23;20588;-78
2022/12/14 10:11:51;;;;;;;64.93;27.90;;;-5.90;99.90;;;;;;6190408;23;20163;-75
2022/12/14 10:14:33;;;;;;;64.40;26.93;;;-5.80;99.90;;;;;;6190545;23;20175;-86
2022/12/14 10:17:19;;;;;;;66.17;28.07;;;-5.80;99.90;;;;;;6190563;23;20198;-72
2022/12/14 10:19:54;;;;;;;71.43;28.43;;;-5.70;99.90;;;;;;6215890;23;20605;-73
2022/12/14 10:22:44;;;;;;;72.27;28.83;;;-5.70;99.90;;;;;;6216261;23;20266;-72
2022/12/14 10:25:22;;;;;;;67.37;27.33;;;-5.60;99.90;;;;;;6189131;23;20191;-76
2022/12/14 10:28:16;;;;;;;66.50;26.80;;;-5.50;99.90;;;;;;6189631;23;20166;-77
2022/12/14 10:30:45;;;;;;;68.47;29.03;;;-5.40;99.90;;;;;;6154002;23;20582;-75
2022/12/14 10:33:29;;;;;;;62.97;27.00;;;-5.40;99.90;;;;;;6129286;23;20678;-72
2022/12/14 10:36:14;;;;;;;68.33;28.00;;;-5.30;99.90;;;;;;6129297;23;20171;-75
2022/12/14 10:39:05;;;;;;;70.57;27.87;;;-5.30;99.90;;;;;;6128942;23;20255;-77
2022/12/14 10:41:54;;;;;;;71.50;28.50;;;-5.30;99.90;;;;;;6128994;23;20259;-73
2022/12/14 10:44:35;;;;;;;66.67;27.63;;;-5.30;99.90;;;;;;6152387;23;20282;-71
2022/12/14 10:47:19;;;;;;;71.77;29.23;;;-5.30;99.90;;;;;;6153158;23;20214;-76
2022/12/14 10:49:52;;;;;;;69.43;28.80;;;-5.30;99.90;;;;;;6128441;23;20316;-72
2022/12/14 10:52:22;;;;;;;61.60;26.90;;;-5.20;99.90;;;;;;6152825;23;20224;-72
2022/12/14 10:54:53;;;;;;;63.33;26.63;;;-5.10;99.90;;;;;;6152223;23;20567;-76
2022/12/14 10:57:23;;;;;;;64.63;26.50;;;-5.20;99.90;;;;;;6152471;23;20192;-76
2022/12/14 10:59:50;;;;;;;66.43;27.20;;;-5.20;99.90;;;;;;6128448;23;20277;-74
2022/12/14 11:02:47;;;;;;;62.83;26.23;;;-5.10;99.90;;;;;;6128968;23;20239;-76
2022/12/14 11:05:33;;;;;;;63.63;27.10;;;-5.10;99.90;;;;;;6153003;23;20262;-81
2022/12/14 11:08:07;;;;;;;63.33;25.57;;;-5.10;99.90;;;;;;6196960;23;20676;-76
2022/12/14 11:10:38;;;;;;;66.07;26.13;;;-5.00;99.90;;;;;;6190407;23;20199;-79
2022/12/14 11:13:17;;;;;;;70.47;27.57;;;-5.00;99.90;;;;;;6189154;23;20955;-70
2022/12/14 11:15:51;;;;;;;69.03;27.30;;;-4.90;99.90;;;;;;6187899;23;20205;-75
2022/12/14 11:18:18;;;;;;;68.83;27.00;;;-4.90;99.90;;;;;;6188717;23;20278;-77
2022/12/14 11:21:00;;;;;;;63.13;26.57;;;-4.70;99.90;;;;;;6163262;23;20225;-71
2022/12/14 11:23:30;;;;;;;63.53;26.60;;;-4.60;99.90;;;;;;6192685;23;20178;-74
2022/12/14 11:26:01;;;;;;;63.53;25.47;;;-4.60;99.90;;;;;;6218399;23;20166;-71
2022/12/14 11:28:33;;;;;;;59.00;24.17;;;-4.70;99.90;;;;;;6189413;23;20174;-68
2022/12/14 11:31:09;;;;;;;63.13;25.37;;;-4.70;99.90;;;;;;6214526;23;20229;-73
2022/12/14 11:33:51;;;;;;;65.27;25.30;;;-4.60;99.90;;;;;;6214259;23;20198;-75
2022/12/14 11:36:44;;;;;;;56.73;24.90;;;-4.40;99.90;;;;;;6187914;23;20178;-71
2022/12/14 11:39:11;;;;;;;58.43;23.80;;;-3.90;99.90;;;;;;6212587;23;20183;-71
2022/12/14 11:41:45;;;;;;;58.97;24.37;;;-3.40;99.90;;;;;;6191158;23;20183;-73
2022/12/14 11:44:15;;;;;;;57.20;23.63;;;-2.90;99.90;;;;;;6198377;23;20179;-72
2022/12/14 11:46:43;;;;;;;54.47;23.10;;;-2.40;99.90;;;;;;6200043;23;20177;-71
2022/12/14 11:49:45;;;;;;;55.07;23.00;;;-2.00;99.90;;;;;;6192368;23;20245;-71
2022/12/14 11:52:17;;;;;;;45.23;21.17;;;-1.70;99.90;;;;;;6153704;23;20183;-70
2022/12/14 11:54:51;;;;;;;52.30;22.83;;;-1.60;99.90;;;;;;6142040;23;20183;-72
2022/12/14 11:57:35;;;;;;;53.87;23.13;;;-1.80;99.90;;;;;;6165758;23;20200;-72
2022/12/14 12:00:15;;;;;;;50.80;22.60;;;-2.00;99.90;;;;;;6142181;23;20167;-70
2022/12/14 12:03:12;;;;;;;48.57;21.73;;;-2.30;99.90;;;;;;6143776;23;20175;-71
2022/12/14 12:05:41;;;;;;;46.53;21.53;;;-2.50;99.90;;;;;;6168613;23;20280;-69
2022/12/14 12:08:27;;;;;;;50.47;21.10;;;-2.70;99.90;;;;;;6166502;23;20200;-72
2022/12/14 12:11:01;;;;;;;48.40;21.40;;;-2.80;99.90;;;;;;6164510;23;20291;-70
2022/12/14 12:13:30;;;;;;;46.07;21.60;;;-3.00;99.90;;;;;;6142778;23;20168;-72
2022/12/14 12:16:04;;;;;;;47.83;21.60;;;-3.10;99.90;;;;;;6130345;23;20205;-71
2022/12/14 12:18:48;;;;;;;44.53;20.47;;;-3.20;99.90;;;;;;6128990;23;20195;-71
2022/12/14 12:21:23;;;;;;;51.90;22.60;;;-3.40;99.90;;;;;;6152040;23;20187;-70
2022/12/14 12:24:01;;;;;;;46.33;21.23;;;-3.30;99.90;;;;;;6131147;23;20189;-73
2022/12/14 12:26:50;;;;;;;48.00;20.80;;;-3.40;99.90;;;;;;6156987;23;20180;-73
2022/12/14 12:29:39;;;;;;;48.50;20.47;;;-3.60;99.90;;;;;;6191671;23;20183;-77
2022/12/14 12:32:09;;;;;;;49.20;21.17;;;-3.70;99.90;;;;;;6226359;23;20231;-75
2022/12/14 12:34:57;;;;;;;48.57;21.63;;;-3.70;99.90;;;;;;6202138;23;20241;-71
2022/12/14 12:37:44;;;;;;;44.30;19.90;;;-3.60;99.90;;;;;;6187628;23;20151;-72
2022/12/14 12:40:33;;;;;;;46.83;19.67;;;-3.70;99.90;;;;;;6184523;23;20181;-72
2022/12/14 12:43:30;;;;;;;47.63;20.17;;;-3.70;99.90;;;;;;6224875;23;20167;-72
2022/12/14 12:46:15;;;;;;;41.87;19.40;;;-3.70;99.90;;;;;;6223030;23;20177;-72
2022/12/14 12:48:45;;;;;;;43.90;19.37;;;-3.60;99.90;;;;;;6197890;23;20190;-72
2022/12/14 12:51:24;;;;;;;42.80;18.57;;;-3.60;99.90;;;;;;6226181;23;20178;-73
2022/12/14 12:54:03;;;;;;;42.43;18.87;;;-3.60;99.90;;;;;;6202168;23;20177;-72
2022/12/14 12:56:46;;;;;;;42.73;19.03;;;-3.50;99.90;;;;;;6225638;23;20266;-73
2022/12/14 12:59:25;;;;;;;41.33;18.07;;;-3.20;99.90;;;;;;6225571;23;20172;-75
2022/12/14 13:01:56;;;;;;;37.30;16.87;;;-3.00;99.90;;;;;;6199821;23;20584;-76
2022/12/14 13:04:39;;;;;;;39.03;16.77;;;-2.80;99.90;;;;;;6170877;23;20187;-75
2022/12/14 13:07:33;;;;;;;39.77;17.43;;;-2.40;99.90;;;;;;6219416;23;20174;-74
2022/12/14 13:10:02;;;;;;;37.47;16.93;;;-2.10;99.90;;;;;;6184797;23;20586;-71
2022/12/14 13:12:42;;;;;;;37.67;15.80;;;-2.10;99.90;;;;;;6188264;23;20546;-75
2022/12/14 13:15:40;;;;;;;32.13;14.50;;;-2.10;99.90;;;;;;6188804;23;20198;-70
2022/12/14 13:18:27;;;;;;;29.80;14.23;;;-2.30;99.90;;;;;;6215434;23;20187;-72